Time;durP1;ratioP1;P1;durP2;ratioP2;P2;SDS_P1;SDS_P2;PMS_P1;PMS_P2;Temp;Humidity;BMP_temperature;BMP_pressure;BME280_temperature;BME280_humidity;BME280_pressure;Samples;Min_cycle;Max_cycle;Signal;HPM_P1;HPM_P2
2021/05/10 00:02:05;;;;;;;5.25;1.63;;;;;;;19.19;57.21;99640.47;5026599;28;20192;-85
2021/05/10 00:04:30;;;;;;;5.60;1.70;;;;;;;19.22;57.49;99648.13;5040171;28;20041;-85
2021/05/10 00:07:01;;;;;;;4.63;2.20;;;;;;;19.26;57.34;99649.31;5004419;28;20041;-85
2021/05/10 00:09:26;;;;;;;4.80;1.92;;;;;;;19.22;57.68;99648.13;5047095;28;20570;-84
2021/05/10 00:11:52;;;;;;;5.18;2.15;;;;;;;19.09;58.01;99641.97;5047436;28;20044;-86
2021/05/10 00:14:27;;;;;;;6.10;2.40;;;;;;;19.07;57.79;99633.22;5042037;28;20045;-85
2021/05/10 00:16:55;;;;;;;3.83;2.00;;;;;;;19.04;57.97;99635.63;5037157;28;20045;-85
2021/05/10 00:19:29;;;;;;;5.78;2.20;;;;;;;18.93;59.57;99629.19;5014245;28;20057;-85
2021/05/10 00:21:54;;;;;;;4.78;2.53;;;;;;;18.70;61.53;99616.56;5030137;28;20036;-86
2021/05/10 00:24:19;;;;;;;5.68;2.33;;;;;;;18.51;61.53;99631.47;5021690;28;20103;-85
2021/05/10 00:26:45;;;;;;;5.63;2.35;;;;;;;18.39;62.10;99618.75;5008419;28;20056;-86
2021/05/10 00:29:18;;;;;;;5.53;2.47;;;;;;;18.24;63.18;99616.59;5003765;28;20625;-85
2021/05/10 00:31:50;;;;;;;9.63;2.33;;;;;;;18.17;63.60;99623.22;5025769;28;20413;-85
2021/05/10 00:34:15;;;;;;;8.77;2.30;;;;;;;18.04;64.59;99616.22;5042549;28;20052;-86
2021/05/10 00:39:11;;;;;;;5.88;2.10;;;;;;;17.83;65.81;99608.72;4981537;28;20042;-81
2021/05/10 00:41:37;;;;;;;5.45;1.83;;;;;;;17.75;66.17;99593.59;4973332;28;20043;-85
2021/05/10 00:44:04;;;;;;;7.13;2.15;;;;;;;17.71;65.93;99601.41;4995263;28;20474;-83
2021/05/10 00:46:33;;;;;;;6.82;2.10;;;;;;;17.72;65.81;99597.63;4981363;28;20220;-79
2021/05/10 00:48:58;;;;;;;5.80;2.17;;;;;;;17.70;65.77;99594.34;4987057;28;20034;-81
2021/05/10 00:51:24;;;;;;;4.95;1.90;;;;;;;17.66;66.33;99593.16;4963579;28;20050;-84
2021/05/10 00:53:50;;;;;;;4.60;2.63;;;;;;;17.60;66.74;99594.09;4984759;28;20098;-77
2021/05/10 00:56:16;;;;;;;2.72;1.85;;;;;;;17.55;66.58;99594.00;4987536;28;20054;-86
2021/05/10 00:58:42;;;;;;;4.13;1.95;;;;;;;17.55;66.06;99596.72;4988635;28;20057;-78
2021/05/10 01:01:08;;;;;;;4.93;2.10;;;;;;;17.54;66.93;99604.03;4985169;28;20058;-86
2021/05/10 01:03:34;;;;;;;6.35;2.28;;;;;;;17.60;65.79;99613.09;4980096;28;20062;-84
2021/05/10 01:06:01;;;;;;;5.82;2.10;;;;;;;17.87;63.28;99608.00;4966163;28;20065;-83
2021/05/10 01:08:26;;;;;;;5.57;2.13;;;;;;;18.10;63.76;99603.56;4972225;28;20057;-81
2021/05/10 01:10:52;;;;;;;4.22;2.05;;;;;;;18.22;63.43;99586.16;4969040;28;20035;-80
2021/05/10 01:13:19;;;;;;;3.03;1.67;;;;;;;18.31;63.64;99572.19;4966165;28;20073;-80
2021/05/10 01:15:51;;;;;;;4.35;1.92;;;;;;;18.45;62.57;99562.66;4963914;28;20182;-77
2021/05/10 01:18:22;;;;;;;3.97;1.67;;;;;;;18.60;61.89;99570.22;4982527;28;20675;-82
2021/05/10 01:20:49;;;;;;;4.50;1.70;;;;;;;18.75;61.27;99567.78;4981905;28;20078;-82
2021/05/10 01:23:16;;;;;;;4.78;1.60;;;;;;;18.90;60.71;99564.47;4986422;28;20133;-84
2021/05/10 01:25:42;;;;;;;4.30;1.70;;;;;;;18.97;60.13;99565.13;4980635;28;20434;-80
2021/05/10 01:28:13;;;;;;;4.55;1.67;;;;;;;19.15;59.16;99564.84;4966722;28;20165;-85
2021/05/10 01:30:48;;;;;;;6.43;1.88;;;;;;;19.24;58.93;99558.97;4970177;28;20384;-77
2021/05/10 01:33:14;;;;;;;7.78;1.73;;;;;;;19.23;59.19;99562.78;4979833;28;20415;-83
2021/05/10 01:35:43;;;;;;;3.90;1.48;;;;;;;19.24;58.86;99558.97;4980644;28;20045;-79
2021/05/10 01:38:09;;;;;;;3.00;1.30;;;;;;;19.27;58.64;99561.19;4979503;28;20331;-80
2021/05/10 01:40:36;;;;;;;6.43;1.95;;;;;;;19.31;58.63;99540.59;4982779;28;20045;-81
2021/05/10 01:43:03;;;;;;;4.88;1.50;;;;;;;19.33;58.06;99541.16;4971837;28;20038;-84
2021/05/10 01:45:29;;;;;;;5.65;1.80;;;;;;;19.35;58.08;99539.81;4967671;28;20058;-82
2021/05/10 01:48:01;;;;;;;5.75;1.80;;;;;;;19.33;57.99;99541.16;4976876;28;20043;-79
2021/05/10 01:50:27;;;;;;;3.83;1.80;;;;;;;19.34;58.34;99537.38;4978003;28;20510;-81
2021/05/10 01:52:53;;;;;;;5.75;1.58;;;;;;;19.44;56.58;99536.66;4984901;28;20122;-82
2021/05/10 01:55:23;;;;;;;3.28;1.50;;;;;;;19.47;57.04;99530.72;4999035;28;20209;-84
2021/05/10 01:57:50;;;;;;;3.50;1.60;;;;;;;19.49;56.53;99513.06;5007106;28;20038;-78
2021/05/10 02:00:21;;;;;;;4.70;1.90;;;;;;;19.55;56.01;99519.41;4986813;28;20171;-80
2021/05/10 02:02:48;;;;;;;4.38;1.70;;;;;;;19.58;55.64;99521.59;4983328;28;20050;-82
2021/05/10 02:05:17;;;;;;;5.18;1.50;;;;;;;19.61;55.79;99521.09;4987911;28;20479;-82
2021/05/10 02:07:46;;;;;;;5.97;2.38;;;;;;;19.58;56.71;99511.53;4970148;28;20647;-80
2021/05/10 02:10:15;;;;;;;5.20;1.80;;;;;;;19.56;56.39;99513.72;4983555;28;20554;-80
2021/05/10 02:12:40;;;;;;;4.45;1.63;;;;;;;19.59;55.93;99518.66;4993200;28;20066;-81
2021/05/10 02:15:09;;;;;;;3.35;1.50;;;;;;;19.59;55.87;99524.09;4978732;28;20038;-83
2021/05/10 02:17:36;;;;;;;5.90;1.70;;;;;;;19.63;54.99;99527.13;4981693;28;20057;-82
2021/05/10 02:20:02;;;;;;;3.38;1.67;;;;;;;19.65;55.10;99525.00;4963784;28;20046;-82
2021/05/10 02:22:28;;;;;;;4.40;1.50;;;;;;;19.68;55.54;99521.78;4980805;28;20069;-79
2021/05/10 02:24:53;;;;;;;3.83;1.60;;;;;;;19.71;54.40;99517.69;4988290;28;20042;-84
2021/05/10 02:27:18;;;;;;;4.30;1.40;;;;;;;19.74;54.48;99514.47;4949762;28;20502;-84
2021/05/10 02:29:44;;;;;;;3.05;1.63;;;;;;;19.79;54.16;99522.69;4964033;28;20042;-84
2021/05/10 02:32:10;;;;;;;4.65;1.50;;;;;;;19.87;53.37;99524.94;4962978;28;20737;-82
2021/05/10 02:34:36;;;;;;;3.30;1.60;;;;;;;19.92;53.69;99522.28;4982390;28;20057;-79
2021/05/10 02:37:02;;;;;;;3.88;1.50;;;;;;;19.98;53.09;99513.09;4974773;28;20061;-83
2021/05/10 02:39:27;;;;;;;3.47;1.42;;;;;;;20.03;52.95;99496.00;4994564;28;20046;-82
2021/05/10 02:41:53;;;;;;;4.53;1.42;;;;;;;20.11;51.85;99491.97;4976913;28;20046;-84
2021/05/10 02:44:18;;;;;;;4.45;1.80;;;;;;;20.24;50.54;99491.53;4992504;28;20046;-81
2021/05/10 02:46:43;;;;;;;3.25;1.30;;;;;;;20.28;50.40;99489.94;4976689;28;20293;-80
2021/05/10 02:49:09;;;;;;;5.43;1.75;;;;;;;20.25;51.32;99498.63;4992874;28;20060;-81
2021/05/10 02:51:36;;;;;;;3.55;1.40;;;;;;;20.29;50.68;99497.03;4984980;28;20049;-83
2021/05/10 02:54:02;;;;;;;3.15;1.40;;;;;;;20.28;51.07;99492.66;4958571;28;20038;-81
2021/05/10 02:56:27;;;;;;;10.10;1.60;;;;;;;20.29;50.37;99488.88;4983912;28;20101;-81
2021/05/10 02:58:57;;;;;;;6.20;1.40;;;;;;;20.27;50.26;99502.72;4972585;28;20039;-83
2021/05/10 03:01:23;;;;;;;3.65;1.45;;;;;;;20.28;50.11;99492.66;4971369;28;20038;-81
2021/05/10 03:03:50;;;;;;;7.75;1.80;;;;;;;20.31;50.37;99494.84;4971492;28;20137;-79
2021/05/10 03:06:17;;;;;;;3.47;1.42;;;;;;;20.29;50.81;99499.75;4985211;28;20050;-79
2021/05/10 03:08:42;;;;;;;3.80;1.70;;;;;;;20.31;49.90;99508.47;4985065;28;20038;-85
2021/05/10 03:11:08;;;;;;;6.40;1.65;;;;;;;20.27;50.91;99501.91;4987526;28;20081;-81
2021/05/10 03:13:34;;;;;;;3.33;1.45;;;;;;;20.22;50.97;99504.59;4975727;28;20129;-81
2021/05/10 03:15:59;;;;;;;2.47;1.30;;;;;;;20.20;50.23;99493.16;4983991;28;20054;-80
2021/05/10 03:18:26;;;;;;;3.35;1.60;;;;;;;20.18;51.03;99508.91;4979993;28;20059;-83
2021/05/10 03:20:53;;;;;;;5.28;1.70;;;;;;;20.18;50.52;99495.31;4988190;28;20057;-85
2021/05/10 03:23:19;;;;;;;4.20;1.83;;;;;;;20.17;51.58;99490.91;4974365;28;20521;-81
2021/05/10 03:25:44;;;;;;;4.97;1.77;;;;;;;20.19;50.31;99494.22;4991982;28;20051;-86
2021/05/10 03:28:11;;;;;;;4.28;1.50;;;;;;;20.22;49.73;99477.34;4991316;28;20399;-82
2021/05/10 03:30:37;;;;;;;3.38;1.67;;;;;;;20.22;50.92;99486.34;4974553;28;20038;-78
2021/05/10 03:33:03;;;;;;;3.78;1.60;;;;;;;20.18;50.94;99481.69;4989480;28;20034;-81
2021/05/10 03:35:28;;;;;;;5.75;1.60;;;;;;;20.13;51.01;99476.19;4986392;28;20054;-77
2021/05/10 03:37:53;;;;;;;4.15;1.65;;;;;;;20.11;50.91;99470.16;4970301;28;20491;-80
2021/05/10 03:40:20;;;;;;;5.60;1.83;;;;;;;20.12;50.30;99461.75;4970297;28;20125;-81
2021/05/10 03:42:46;;;;;;;6.05;1.75;;;;;;;20.06;51.89;99469.06;4990356;28;20426;-85
2021/05/10 03:45:13;;;;;;;7.95;1.90;;;;;;;20.02;50.73;99473.41;4983463;28;20046;-81
2021/05/10 03:47:41;;;;;;;4.85;1.80;;;;;;;19.96;51.50;99479.84;4988058;28;20407;-81
2021/05/10 03:50:07;;;;;;;6.32;1.85;;;;;;;19.91;50.78;99479.81;4984303;28;20678;-85
2021/05/10 03:52:32;;;;;;;5.82;2.00;;;;;;;19.88;51.11;99471.31;4974855;28;20049;-81
2021/05/10 03:54:58;;;;;;;11.30;1.90;;;;;;;19.82;51.88;99486.78;4982408;28;20117;-84
2021/05/10 03:57:24;;;;;;;3.35;1.70;;;;;;;19.74;51.33;99490.00;4983419;28;20186;-81
2021/05/10 03:59:49;;;;;;;4.95;1.80;;;;;;;19.66;52.03;99487.72;4973078;28;20049;-77
2021/05/10 04:02:15;;;;;;;7.18;1.70;;;;;;;19.61;51.78;99485.72;4989153;28;20046;-81
2021/05/10 04:04:47;;;;;;;6.47;1.60;;;;;;;19.57;52.49;99487.31;4987076;28;20050;-83
2021/05/10 04:14:58;;;;;;;4.18;1.67;;;;;;;19.34;52.94;99477.53;4986081;28;20382;-84
2021/05/10 04:17:32;;;;;;;6.40;1.67;;;;;;;19.33;54.01;99486.75;4980278;28;20046;-81
2021/05/10 04:19:57;;;;;;;3.90;1.60;;;;;;;19.28;53.70;99478.56;5002631;28;20042;-80
2021/05/10 04:22:22;;;;;;;4.07;1.35;;;;;;;19.26;53.47;99494.28;4986611;28;20092;-82
2021/05/10 04:24:49;;;;;;;4.63;1.77;;;;;;;19.26;53.98;99494.28;4989293;28;20121;-80
2021/05/10 04:27:14;;;;;;;4.07;2.38;;;;;;;19.17;54.05;99500.16;4980795;28;20039;-78
2021/05/10 04:29:39;;;;;;;6.65;1.80;;;;;;;19.17;54.24;99502.88;4982402;28;20139;-79
2021/05/10 04:32:07;;;;;;;4.80;1.60;;;;;;;19.19;54.36;99509.94;4972067;28;20046;-83
2021/05/10 04:34:32;;;;;;;5.30;1.67;;;;;;;19.17;54.62;99515.66;4984727;28;20069;-85
2021/05/10 04:36:57;;;;;;;3.40;1.65;;;;;;;19.17;54.82;99515.66;4980347;28;20042;-83
2021/05/10 04:39:23;;;;;;;4.80;1.73;;;;;;;19.14;54.76;99503.38;4989229;28;20111;-85
2021/05/10 04:41:48;;;;;;;5.57;2.00;;;;;;;19.15;54.69;99505.03;4972750;28;20046;-86
2021/05/10 04:44:14;;;;;;;3.25;1.60;;;;;;;19.17;54.14;99505.59;4971197;28;20054;-81
2021/05/10 04:46:39;;;;;;;6.28;2.05;;;;;;;19.17;54.47;99510.22;4963877;28;20072;-82
2021/05/10 04:49:04;;;;;;;3.97;1.92;;;;;;;19.17;55.15;99500.16;4965068;28;20502;-81
2021/05/10 04:51:31;;;;;;;5.43;1.60;;;;;;;19.20;54.44;99503.47;4961088;28;20477;-82
2021/05/10 04:53:57;;;;;;;5.10;1.92;;;;;;;19.24;54.79;99499.16;4972000;28;20055;-78
2021/05/10 04:56:22;;;;;;;3.03;1.70;;;;;;;19.26;54.91;99499.72;4959741;28;20047;-82
2021/05/10 04:58:48;;;;;;;5.80;1.55;;;;;;;19.31;53.94;99502.53;4952542;28;20035;-82
2021/05/10 05:01:13;;;;;;;5.68;1.77;;;;;;;19.34;54.28;99489.22;4972725;28;20081;-79
2021/05/10 05:03:38;;;;;;;5.53;1.63;;;;;;;19.37;53.97;99493.34;4983364;28;20088;-83
2021/05/10 05:06:04;;;;;;;4.60;1.40;;;;;;;19.46;53.76;99496.44;4982626;28;20047;-81
2021/05/10 05:08:29;;;;;;;5.30;1.83;;;;;;;19.53;54.06;99519.63;4981940;28;20507;-80
2021/05/10 05:10:55;;;;;;;3.08;1.63;;;;;;;19.60;53.48;99525.72;4981248;28;20419;-81
2021/05/10 05:13:25;;;;;;;8.88;1.92;;;;;;;19.66;53.04;99528.53;4978298;28;20061;-80
2021/05/10 05:15:51;;;;;;;7.90;1.42;;;;;;;19.75;52.99;99527.00;4983640;28;20061;-80
2021/05/10 05:18:17;;;;;;;4.70;1.80;;;;;;;19.80;52.47;99551.56;4985972;28;20058;-82
2021/05/10 05:20:43;;;;;;;6.68;1.40;;;;;;;19.86;52.10;99552.44;4988546;28;20050;-80
2021/05/10 05:23:25;;;;;;;4.57;2.08;;;;;;;19.88;52.49;99545.66;4978038;28;20196;-81
2021/05/10 05:25:58;;;;;;;6.10;1.90;;;;;;;19.93;51.80;99555.78;4966746;28;20074;-79
2021/05/10 05:28:26;;;;;;;3.80;1.92;;;;;;;19.93;52.12;99548.41;4978153;28;20073;-81
2021/05/10 05:30:51;;;;;;;6.22;1.90;;;;;;;19.92;52.50;99557.69;4979039;28;20057;-80
2021/05/10 05:33:18;;;;;;;5.60;1.67;;;;;;;19.91;53.06;99557.91;4989915;28;20031;-79
2021/05/10 05:35:43;;;;;;;4.95;1.70;;;;;;;19.88;52.65;99559.28;4970540;28;20428;-81
2021/05/10 05:38:10;;;;;;;5.18;1.67;;;;;;;19.90;52.28;99570.72;4973733;28;20130;-80
2021/05/10 05:40:37;;;;;;;3.95;1.55;;;;;;;19.92;52.86;99565.03;4990503;28;20527;-79
2021/05/10 05:43:04;;;;;;;5.03;2.08;;;;;;;19.95;53.33;99568.06;4986438;28;20046;-84
2021/05/10 05:45:31;;;;;;;5.40;1.55;;;;;;;20.01;53.09;99580.63;4984856;28;20046;-81
2021/05/10 05:47:56;;;;;;;4.13;1.70;;;;;;;20.02;52.77;99590.47;5002044;28;20077;-81
2021/05/10 05:50:22;;;;;;;5.68;1.90;;;;;;;20.06;52.85;99575.25;4995208;28;20050;-83
2021/05/10 05:52:47;;;;;;;6.70;1.88;;;;;;;20.06;52.41;99594.31;4967666;28;20054;-83
2021/05/10 05:55:13;;;;;;;4.30;1.65;;;;;;;20.07;53.10;99597.84;4983472;28;20093;-83
2021/05/10 05:57:43;;;;;;;4.45;1.63;;;;;;;20.10;52.93;99607.41;4967020;28;20057;-79
2021/05/10 06:00:09;;;;;;;6.15;1.70;;;;;;;20.13;52.89;99601.47;4965771;28;20062;-83
2021/05/10 06:02:36;;;;;;;4.28;1.45;;;;;;;20.14;52.95;99605.81;4965883;28;20042;-84
2021/05/10 06:05:01;;;;;;;5.15;1.73;;;;;;;20.15;53.26;99624.63;4972169;28;20045;-82
2021/05/10 06:07:26;;;;;;;4.68;1.42;;;;;;;20.16;52.40;99625.47;4991627;28;20042;-82
2021/05/10 06:09:52;;;;;;;3.88;1.90;;;;;;;20.16;53.23;99630.91;4983331;28;20044;-81
2021/05/10 06:12:17;;;;;;;5.32;1.65;;;;;;;20.15;52.75;99629.28;4968502;28;20117;-82
2021/05/10 06:14:42;;;;;;;4.30;1.60;;;;;;;20.15;52.67;99634.72;4984713;28;20050;-77
2021/05/10 06:17:09;;;;;;;4.97;1.77;;;;;;;20.14;52.80;99643.94;4982425;28;20503;-79
2021/05/10 06:19:35;;;;;;;3.42;1.60;;;;;;;20.11;53.10;99633.56;4988156;28;20054;-81
2021/05/10 06:22:01;;;;;;;3.88;1.50;;;;;;;20.13;53.34;99636.88;4970161;28;20126;-83
2021/05/10 06:24:26;;;;;;;5.50;1.73;;;;;;;20.14;53.09;99638.50;4986935;28;20141;-84
2021/05/10 06:26:52;;;;;;;4.90;1.50;;;;;;;20.13;53.26;99642.31;4986555;28;20122;-81
2021/05/10 06:29:22;;;;;;;6.47;1.45;;;;;;;20.12;54.03;99629.78;4947136;28;20085;-84
2021/05/10 06:31:49;;;;;;;4.38;1.60;;;;;;;20.10;54.10;99627.31;4983287;28;20606;-84
2021/05/10 06:34:15;;;;;;;6.85;1.65;;;;;;;20.08;54.04;99631.34;4968932;28;20130;-81
2021/05/10 06:36:40;;;;;;;4.20;1.60;;;;;;;20.10;53.57;99630.03;4983640;28;20511;-82
2021/05/10 06:39:06;;;;;;;6.07;1.60;;;;;;;20.12;54.06;99635.22;4989666;28;20129;-81
2021/05/10 06:41:31;;;;;;;4.57;1.85;;;;;;;20.13;53.98;99647.75;4988130;28;20545;-83
2021/05/10 06:43:56;;;;;;;3.35;1.60;;;;;;;20.12;54.23;99646.94;4988365;28;20046;-85
2021/05/10 06:46:23;;;;;;;4.50;1.65;;;;;;;20.15;54.10;99656.50;4988612;28;20050;-86
2021/05/10 06:48:58;;;;;;;6.35;1.98;;;;;;;20.17;54.42;99665.22;4974030;28;20475;-84
2021/05/10 06:51:26;;;;;;;3.28;1.58;;;;;;;20.19;53.75;99663.88;4944000;28;20591;-82
2021/05/10 06:53:51;;;;;;;2.85;1.60;;;;;;;20.25;54.35;99678.41;4956837;28;20420;-82
2021/05/10 06:56:17;;;;;;;4.28;1.48;;;;;;;20.27;53.65;99668.88;4958756;28;20403;-85
2021/05/10 06:58:42;;;;;;;4.75;1.73;;;;;;;20.32;54.03;99684.47;4980374;28;20042;-81
2021/05/10 07:01:07;;;;;;;4.25;1.40;;;;;;;20.38;54.04;99680.72;4986205;28;20034;-84
2021/05/10 07:03:33;;;;;;;2.67;1.38;;;;;;;20.43;53.75;99683.53;4980572;28;20085;-81
2021/05/10 07:05:58;;;;;;;4.28;1.50;;;;;;;20.53;53.51;99693.72;4986642;28;20042;-83
2021/05/10 07:08:24;;;;;;;5.32;1.58;;;;;;;20.68;53.25;99725.75;4984659;28;20081;-87
2021/05/10 07:10:51;;;;;;;5.55;2.17;;;;;;;20.79;52.96;99715.78;4969406;28;20113;-83
2021/05/10 07:13:18;;;;;;;3.70;1.60;;;;;;;20.81;52.68;99703.56;4983107;28;20129;-80
2021/05/10 07:15:43;;;;;;;4.50;1.40;;;;;;;20.73;52.87;99698.56;4990644;28;20038;-83
2021/05/10 07:18:13;;;;;;;6.07;1.65;;;;;;;20.68;53.81;99685.69;4983594;28;20105;-80
2021/05/10 07:20:41;;;;;;;4.82;1.67;;;;;;;20.62;53.92;99691.38;4986111;28;20049;-79
2021/05/10 07:23:08;;;;;;;4.10;1.17;;;;;;;20.50;53.67;99699.66;4985133;28;20128;-82
2021/05/10 07:25:35;;;;;;;3.72;1.48;;;;;;;20.41;54.31;99707.47;4991605;28;20043;-82
2021/05/10 07:28:02;;;;;;;7.22;1.85;;;;;;;20.33;54.23;99699.75;4989921;28;20112;-85
2021/05/10 07:30:28;;;;;;;3.65;1.50;;;;;;;20.28;54.15;99713.28;4986717;28;20046;-81
2021/05/10 07:32:53;;;;;;;3.55;1.42;;;;;;;20.26;54.76;99699.13;4974409;28;20038;-81
2021/05/10 07:35:19;;;;;;;5.95;1.63;;;;;;;20.22;54.88;99712.41;4973372;28;20053;-81
2021/05/10 07:37:44;;;;;;;2.50;1.10;;;;;;;20.13;56.66;99730.28;4985087;28;20034;-82
2021/05/10 07:40:10;;;;;;;6.90;1.30;;;;;;;19.86;59.06;99740.28;4982239;28;20034;-83
2021/05/10 07:42:36;;;;;;;6.25;1.50;;;;;;;19.60;60.38;99765.19;4985009;28;20508;-80
2021/05/10 07:45:02;;;;;;;3.58;1.08;;;;;;;19.44;61.08;99779.59;4987284;28;20039;-80
2021/05/10 07:47:30;;;;;;;7.47;1.20;;;;;;;19.21;62.10;99787.91;4988755;28;20045;-82
2021/05/10 07:49:57;;;;;;;3.53;1.30;;;;;;;19.05;62.69;99790.38;4984183;28;20046;-80
2021/05/10 07:52:22;;;;;;;6.22;1.35;;;;;;;19.00;63.25;99814.75;4971915;28;20058;-86
2021/05/10 07:54:48;;;;;;;2.75;1.17;;;;;;;18.95;63.60;99820.06;4984317;28;20042;-83
2021/05/10 07:57:13;;;;;;;2.97;1.30;;;;;;;18.89;63.63;99808.28;4989667;28;20125;-81
2021/05/10 07:59:38;;;;;;;3.60;1.25;;;;;;;18.83;64.07;99808.44;4979390;28;20533;-82
2021/05/10 08:02:05;;;;;;;5.95;1.20;;;;;;;18.84;64.30;99812.78;4983099;28;20402;-82
2021/05/10 08:04:30;;;;;;;3.25;1.17;;;;;;;18.89;64.64;99829.19;4985547;28;20054;-84
2021/05/10 08:06:56;;;;;;;4.63;1.17;;;;;;;18.87;65.02;99820.44;4984227;28;20057;-83
2021/05/10 08:09:22;;;;;;;4.85;1.65;;;;;;;18.86;64.98;99856.88;4977997;28;20038;-82
2021/05/10 08:11:48;;;;;;;3.60;1.05;;;;;;;18.83;65.26;99843.75;4988244;28;20109;-80
2021/05/10 08:14:13;;;;;;;3.75;1.20;;;;;;;18.77;65.25;99852.88;4970610;28;20145;-86
2021/05/10 08:16:39;;;;;;;5.05;1.10;;;;;;;18.69;64.62;99849.44;4971250;28;20050;-83
2021/05/10 08:19:05;;;;;;;1.98;0.70;;;;;;;18.64;64.53;99838.47;4988219;28;20077;-84
2021/05/10 08:21:31;;;;;;;3.20;1.10;;;;;;;18.53;64.67;99844.75;4979254;28;20133;-85
2021/05/10 08:23:56;;;;;;;3.30;1.00;;;;;;;18.54;64.50;99821.97;4962508;28;20082;-80
2021/05/10 08:26:22;;;;;;;2.03;1.00;;;;;;;18.54;64.76;99816.53;4969860;28;20074;-80
2021/05/10 08:28:47;;;;;;;2.50;1.13;;;;;;;18.57;64.57;99798.91;4955148;28;20069;-85
2021/05/10 08:31:13;;;;;;;3.05;1.00;;;;;;;18.64;64.50;99819.47;4986548;28;20042;-83
2021/05/10 08:33:38;;;;;;;3.63;1.10;;;;;;;18.63;64.06;99808.81;4967740;28;20553;-79
2021/05/10 08:36:04;;;;;;;2.75;0.98;;;;;;;18.72;64.39;99813.63;4965984;28;20610;-83
2021/05/10 08:38:29;;;;;;;2.08;0.85;;;;;;;18.86;64.33;99813.38;4978542;28;20130;-84
2021/05/10 08:40:54;;;;;;;3.47;0.90;;;;;;;19.09;63.77;99829.59;4981534;28;20062;-83
2021/05/10 08:43:22;;;;;;;2.50;0.98;;;;;;;19.26;62.98;99836.97;4974870;28;20061;-80
2021/05/10 08:45:54;;;;;;;1.65;0.90;;;;;;;19.24;62.34;99837.19;4980764;28;20050;-81
2021/05/10 08:48:20;;;;;;;3.95;0.75;;;;;;;19.17;62.42;99852.84;4985669;28;20133;-83
2021/05/10 08:50:46;;;;;;;2.47;0.88;;;;;;;19.14;62.23;99862.31;4976230;28;20047;-82
2021/05/10 08:53:13;;;;;;;3.05;1.10;;;;;;;19.13;61.95;99878.84;4980115;28;20097;-81
2021/05/10 08:55:39;;;;;;;1.58;0.90;;;;;;;19.05;61.66;99884.72;4986678;28;20085;-83
2021/05/10 08:58:07;;;;;;;3.40;0.80;;;;;;;18.92;60.63;99866.78;4963601;28;20038;-84
2021/05/10 09:00:32;;;;;;;3.72;0.60;;;;;;;18.89;60.79;99862.63;4954627;28;20435;-83
2021/05/10 09:03:10;;;;;;;7.80;1.05;;;;;;;18.99;60.04;99872.91;4987425;28;20045;-84
2021/05/10 09:05:50;;;;;;;4.67;1.00;;;;;;;19.21;60.15;99864.06;4986942;28;20077;-84
2021/05/10 09:08:16;;;;;;;9.52;1.30;;;;;;;19.43;58.71;99875.06;4967357;28;20290;-83
2021/05/10 09:11:02;;;;;;;14.32;1.40;;;;;;;19.41;57.93;99886.19;4984110;28;20042;-83
2021/05/10 09:13:32;;;;;;;7.55;1.10;;;;;;;19.34;58.00;99890.97;4980810;28;20392;-83
2021/05/10 09:16:02;;;;;;;7.55;1.20;;;;;;;19.28;57.85;99902.84;4995676;28;20117;-86
2021/05/10 09:18:28;;;;;;;3.95;1.23;;;;;;;19.25;57.75;99871.50;4963258;28;20049;-82
2021/05/10 09:20:53;;;;;;;2.38;1.08;;;;;;;19.13;58.04;99889.75;4964995;28;20042;-85
2021/05/10 09:23:19;;;;;;;2.47;1.10;;;;;;;19.19;58.83;99871.63;4985768;28;20537;-86
2021/05/10 09:25:53;;;;;;;2.97;0.90;;;;;;;19.31;59.24;99897.72;4981227;28;20050;-84
2021/05/10 09:28:20;;;;;;;2.35;0.80;;;;;;;19.23;59.52;99930.75;4980165;28;20120;-84
2021/05/10 09:30:49;;;;;;;4.20;0.77;;;;;;;19.09;58.95;99951.94;4979848;28;20090;-83
2021/05/10 09:33:21;;;;;;;2.90;0.88;;;;;;;19.05;59.27;99950.78;4980311;28;20042;-84
2021/05/10 09:35:47;;;;;;;7.20;1.17;;;;;;;18.92;59.39;99961.91;4979412;28;20054;-82
2021/05/10 09:38:12;;;;;;;3.03;0.90;;;;;;;18.83;59.16;99955.19;4982906;28;20039;-84
2021/05/10 09:40:50;;;;;;;4.03;1.65;;;;;;;18.77;59.71;99939.84;4968001;28;20031;-82
2021/05/10 09:43:23;;;;;;;3.67;0.90;;;;;;;18.76;60.38;99943.63;4963877;28;20403;-82
2021/05/10 09:45:54;;;;;;;2.67;1.10;;;;;;;18.85;60.53;99958.50;4983665;28;20042;-82
2021/05/10 09:48:24;;;;;;;7.85;1.70;;;;;;;18.89;60.17;99965.94;4983780;28;20450;-83
2021/05/10 09:51:01;;;;;;;3.05;1.10;;;;;;;18.82;60.59;99964.44;4992679;28;20073;-80
2021/05/10 09:53:49;;;;;;;3.93;1.40;;;;;;;18.78;60.60;99998.56;4991315;28;20046;-82
2021/05/10 09:58:54;;;;;;;4.90;1.52;;;;;;;18.61;60.87;99977.50;4990896;28;20605;-82
2021/05/10 10:01:20;;;;;;;2.85;1.45;;;;;;;18.63;61.43;99991.69;4984580;28;20441;-81
2021/05/10 10:03:48;;;;;;;6.13;1.50;;;;;;;18.64;61.68;99993.34;4984574;28;20047;-82
2021/05/10 10:06:18;;;;;;;4.57;1.35;;;;;;;18.65;61.69;100003.16;4987574;28;20061;-84
2021/05/10 10:08:48;;;;;;;3.85;1.60;;;;;;;18.66;61.65;100010.22;4972093;28;20446;-80
2021/05/10 10:11:17;;;;;;;4.47;1.50;;;;;;;18.65;62.35;100007.78;4985457;28;20078;-81
2021/05/10 10:13:44;;;;;;;4.82;1.50;;;;;;;18.67;61.93;100017.34;4984807;28;20038;-80
2021/05/10 10:16:10;;;;;;;2.88;1.45;;;;;;;18.69;62.44;100034.22;4985012;28;20050;-83
2021/05/10 10:18:40;;;;;;;4.88;1.30;;;;;;;18.60;62.76;100041.06;4971099;28;22667;-81
2021/05/10 10:21:07;;;;;;;2.92;1.52;;;;;;;18.49;62.83;100045.41;4991159;28;20038;-78
2021/05/10 10:23:34;;;;;;;5.50;1.83;;;;;;;18.43;63.22;100059.13;4990318;28;20046;-85
2021/05/10 10:26:04;;;;;;;3.08;1.50;;;;;;;18.47;63.47;100044.00;4993429;28;20046;-80
2021/05/10 10:28:30;;;;;;;4.32;1.33;;;;;;;18.56;63.11;100056.19;4973549;28;20514;-81
2021/05/10 10:31:02;;;;;;;4.18;1.40;;;;;;;18.56;63.14;100072.50;4988826;28;20069;-80
2021/05/10 10:33:39;;;;;;;1.98;1.17;;;;;;;18.34;63.29;100068.69;4987561;28;20487;-83
2021/05/10 10:36:13;;;;;;;2.40;1.20;;;;;;;18.11;63.95;100089.25;5008336;28;20038;-82
2021/05/10 10:38:39;;;;;;;3.08;1.10;;;;;;;17.69;65.67;100097.28;4982644;28;20053;-80
2021/05/10 10:41:25;;;;;;;2.38;0.90;;;;;;;17.42;66.89;100104.09;4984667;28;20374;-82
2021/05/10 10:43:52;;;;;;;4.22;1.80;;;;;;;17.25;68.16;100068.63;4983636;28;20050;-79
2021/05/10 10:46:28;;;;;;;1.83;1.30;;;;;;;17.08;68.95;100111.75;4972217;28;20081;-86
2021/05/10 10:49:17;;;;;;;2.35;1.38;;;;;;;17.00;69.33;100122.88;5004091;28;20088;-83
2021/05/10 10:51:53;;;;;;;3.35;1.40;;;;;;;16.87;69.80;100135.50;4979993;28;20065;-84
2021/05/10 10:54:24;;;;;;;2.92;1.23;;;;;;;16.79;70.22;100141.19;4990690;28;20070;-83
2021/05/10 10:56:58;;;;;;;4.13;1.52;;;;;;;16.76;69.70;100141.63;4972653;28;20062;-80
2021/05/10 10:59:24;;;;;;;3.00;1.20;;;;;;;16.70;68.94;100128.94;4981736;28;20050;-81
2021/05/10 11:01:50;;;;;;;2.65;1.30;;;;;;;16.72;69.01;100121.44;4986656;28;20042;-81
2021/05/10 11:04:29;;;;;;;3.13;1.45;;;;;;;16.77;68.42;100137.88;4991576;28;20053;-83
2021/05/10 11:06:55;;;;;;;2.47;1.10;;;;;;;16.91;68.66;100141.31;4993628;28;20062;-78
2021/05/10 11:09:45;;;;;;;2.22;1.30;;;;;;;16.99;67.79;100134.78;4986507;28;20110;-79
2021/05/10 11:12:48;;;;;;;2.40;1.10;;;;;;;16.94;66.93;100130.00;4998298;28;20487;-86
2021/05/10 11:15:38;;;;;;;3.10;1.50;;;;;;;16.90;67.54;100124.22;4965011;28;20568;-84
2021/05/10 11:18:05;;;;;;;4.53;1.45;;;;;;;16.90;67.58;100126.94;4975005;28;20038;-80
2021/05/10 11:20:46;;;;;;;2.50;1.40;;;;;;;16.84;67.47;100157.63;4989207;28;20053;-81
2021/05/10 11:23:21;;;;;;;3.08;1.20;;;;;;;16.83;67.71;100131.59;4974494;28;20138;-80
2021/05/10 11:25:46;;;;;;;3.35;1.52;;;;;;;16.84;67.32;100149.50;4988966;28;20050;-82
2021/05/10 11:28:27;;;;;;;3.08;1.30;;;;;;;16.91;67.23;100150.25;4986586;28;20046;-80
2021/05/10 11:31:12;;;;;;;3.00;1.20;;;;;;;16.92;67.52;100189.88;4987177;28;20134;-78
2021/05/10 11:33:53;;;;;;;4.20;1.02;;;;;;;17.01;67.11;100181.47;4987404;28;20039;-81
2021/05/10 11:36:24;;;;;;;2.70;1.00;;;;;;;17.03;66.50;100157.66;4983458;28;20051;-84
2021/05/10 11:38:55;;;;;;;2.95;1.23;;;;;;;17.10;65.56;100172.00;4975699;28;20487;-87
2021/05/10 11:41:46;;;;;;;4.65;1.20;;;;;;;17.35;65.15;100174.69;4975295;28;20426;-84
2021/05/10 11:44:21;;;;;;;1.65;1.00;;;;;;;17.46;64.39;100189.38;4957670;28;20045;-82
2021/05/10 11:46:51;;;;;;;1.50;0.90;;;;;;;17.46;63.85;100195.63;4973320;28;20042;-81
2021/05/10 11:49:41;;;;;;;2.47;1.05;;;;;;;17.52;63.62;100183.91;4970445;28;20063;-80